Time;durP1;ratioP1;P1;durP2;ratioP2;P2;SDS_P1;SDS_P2;PMS_P1;PMS_P2;Temp;Humidity;BMP_temperature;BMP_pressure;BME280_temperature;BME280_humidity;BME280_pressure;Samples;Min_cycle;Max_cycle;Signal;HPM_P1;HPM_P2
2023/04/15 03:52:32;;;;;;;18.77;17.40;;;4.40;99.90;;;;;;6045948;23;20449;31
2023/04/15 03:54:59;;;;;;;17.10;15.93;;;4.40;99.90;;;;;;4901790;29;20494;-74
2023/04/15 03:57:26;;;;;;;15.63;14.43;;;4.40;99.90;;;;;;4913402;29;21010;-72
2023/04/15 03:59:53;;;;;;;16.93;15.83;;;4.40;99.90;;;;;;4913413;29;20542;-72
2023/04/15 04:02:19;;;;;;;17.37;16.30;;;4.30;99.90;;;;;;4913895;29;20459;-73
2023/04/15 04:04:46;;;;;;;18.63;17.23;;;4.40;99.90;;;;;;4913621;29;20543;-73
2023/04/15 04:07:16;;;;;;;19.90;18.47;;;4.30;99.90;;;;;;4913164;29;20459;-73
2023/04/15 04:09:44;;;;;;;17.70;16.13;;;4.30;99.90;;;;;;4913164;29;20460;-75
2023/04/15 04:12:11;;;;;;;17.80;16.40;;;4.40;99.90;;;;;;4913272;29;21155;-74
2023/04/15 04:14:37;;;;;;;18.63;17.33;;;4.40;99.90;;;;;;4913190;29;20534;-75
2023/04/15 04:17:04;;;;;;;19.70;18.07;;;4.40;99.90;;;;;;4913320;29;20561;-75
2023/04/15 04:19:31;;;;;;;17.83;16.70;;;4.40;99.90;;;;;;4913323;29;20936;-75
2023/04/15 04:21:58;;;;;;;17.03;15.90;;;4.40;99.90;;;;;;4913295;29;20538;-75
2023/04/15 04:24:25;;;;;;;17.47;16.10;;;4.30;99.90;;;;;;4913073;29;20518;-75
2023/04/15 04:26:53;;;;;;;16.83;15.67;;;4.30;99.90;;;;;;4913292;29;20552;-74
2023/04/15 04:29:19;;;;;;;17.37;15.87;;;4.30;99.90;;;;;;4913195;29;20829;-74
2023/04/15 04:31:47;;;;;;;15.40;14.50;;;4.30;99.90;;;;;;4913324;29;20459;-73
2023/04/15 04:34:14;;;;;;;17.53;16.10;;;4.30;99.90;;;;;;4913375;29;20467;-74
2023/04/15 04:36:40;;;;;;;16.70;15.70;;;4.30;99.90;;;;;;4913256;29;20511;-74
2023/04/15 04:39:07;;;;;;;19.37;17.70;;;4.30;99.90;;;;;;4912769;29;20565;-74
2023/04/15 04:41:34;;;;;;;18.70;17.23;;;4.20;99.90;;;;;;4913185;29;20451;-74
2023/04/15 04:44:02;;;;;;;18.57;16.77;;;4.20;99.90;;;;;;4912843;29;20470;-74
2023/04/15 04:46:30;;;;;;;16.73;15.30;;;4.20;99.90;;;;;;4912752;29;20626;-74
2023/04/15 04:48:57;;;;;;;18.90;17.03;;;4.20;99.90;;;;;;4912663;29;20805;-74
2023/04/15 04:51:23;;;;;;;18.23;16.97;;;4.20;99.90;;;;;;4912380;29;20532;-74
2023/04/15 04:53:50;;;;;;;17.93;16.50;;;4.20;99.90;;;;;;4912558;29;20487;-74
2023/04/15 04:56:17;;;;;;;17.40;15.77;;;4.20;99.90;;;;;;4912633;29;20465;-73
2023/04/15 04:58:43;;;;;;;17.23;15.60;;;4.20;99.90;;;;;;4912270;29;20529;-73
2023/04/15 05:01:11;;;;;;;16.77;15.57;;;4.30;99.90;;;;;;4912480;29;20459;-73
2023/04/15 05:03:38;;;;;;;17.40;16.13;;;4.30;99.90;;;;;;4912476;29;20482;-73
2023/04/15 05:06:07;;;;;;;18.30;17.00;;;4.30;99.90;;;;;;4912323;29;20460;-73
2023/04/15 05:08:34;;;;;;;17.90;16.93;;;4.30;99.90;;;;;;4912490;29;20825;-73
2023/04/15 05:11:01;;;;;;;17.23;15.87;;;4.20;99.90;;;;;;4912429;29;20468;-73
2023/04/15 05:13:28;;;;;;;16.23;15.00;;;4.20;99.90;;;;;;4912293;29;20462;-73
2023/04/15 05:15:55;;;;;;;15.87;14.83;;;4.20;99.90;;;;;;4912346;29;20472;-73
2023/04/15 05:18:23;;;;;;;15.97;14.83;;;4.20;99.90;;;;;;4912146;29;20829;-72
2023/04/15 05:20:50;;;;;;;16.47;15.30;;;4.20;99.90;;;;;;4912343;29;20545;-72
2023/04/15 05:23:17;;;;;;;17.07;15.53;;;4.20;99.90;;;;;;4912427;29;20867;-73
2023/04/15 05:25:44;;;;;;;16.33;15.20;;;4.10;99.90;;;;;;4912135;29;20493;-71
2023/04/15 05:28:11;;;;;;;15.10;14.00;;;4.10;99.90;;;;;;4912133;29;20458;-72
2023/04/15 05:30:38;;;;;;;15.33;14.30;;;4.10;99.90;;;;;;4911944;29;20465;-72
2023/04/15 05:33:05;;;;;;;13.97;12.97;;;4.10;99.90;;;;;;4912297;29;20466;-73
2023/04/15 05:35:33;;;;;;;15.03;14.03;;;4.20;99.90;;;;;;4912723;29;21008;-73
2023/04/15 05:37:59;;;;;;;17.43;15.97;;;4.20;99.90;;;;;;4912518;29;20496;-75
2023/04/15 05:40:26;;;;;;;16.83;15.67;;;4.20;99.90;;;;;;4912237;29;20514;-73
2023/04/15 05:42:53;;;;;;;16.93;15.33;;;4.30;99.90;;;;;;4911896;29;20561;-72
2023/04/15 05:45:20;;;;;;;15.60;14.40;;;4.40;99.90;;;;;;4909907;29;20456;-69
2023/04/15 05:47:49;;;;;;;14.80;13.80;;;4.50;99.90;;;;;;4911435;29;20485;-69
2023/04/15 05:50:16;;;;;;;15.33;14.33;;;4.60;99.90;;;;;;4911762;29;20553;-69
2023/04/15 05:52:44;;;;;;;14.97;13.97;;;4.80;99.90;;;;;;4911276;29;20478;-69
2023/04/15 05:55:11;;;;;;;14.73;13.67;;;4.90;99.90;;;;;;4911552;29;20564;-69
2023/04/15 05:57:38;;;;;;;14.07;13.27;;;5.10;99.90;;;;;;4911615;29;20820;-69
2023/04/15 06:00:05;;;;;;;13.20;12.27;;;5.40;99.90;;;;;;4911926;29;20457;-69
2023/04/15 06:02:32;;;;;;;14.37;13.30;;;5.70;99.90;;;;;;4911784;29;20469;-69
2023/04/15 06:04:59;;;;;;;14.17;13.10;;;6.10;99.90;;;;;;4911235;29;20533;-69
2023/04/15 06:07:26;;;;;;;12.83;12.00;;;6.40;99.90;;;;;;4874083;29;20756;-69
2023/04/15 06:09:54;;;;;;;13.50;12.40;;;6.60;99.90;;;;;;4874100;29;20563;-69
2023/04/15 06:12:21;;;;;;;13.37;12.60;;;6.80;99.90;;;;;;4877588;29;21014;-70
2023/04/15 06:14:47;;;;;;;15.10;14.00;;;6.90;99.90;;;;;;4877944;29;20942;-69
2023/04/15 06:17:17;;;;;;;14.50;13.60;;;7.00;99.90;;;;;;4877477;29;20460;-70
2023/04/15 06:19:43;;;;;;;11.60;10.87;;;7.40;99.90;;;;;;4877425;29;20507;-70
2023/04/15 06:22:10;;;;;;;13.20;12.10;;;;;;;;;;4877395;29;20504;-70
2023/04/15 06:24:37;;;;;;;13.60;12.70;;;8.30;99.90;;;;;;4877515;29;20571;-70
2023/04/15 06:27:05;;;;;;;11.90;11.10;;;8.60;99.90;;;;;;4877860;29;20456;-71
2023/04/15 06:29:32;;;;;;;12.17;11.43;;;8.80;99.90;;;;;;4877593;29;20961;-70
2023/04/15 06:31:58;;;;;;;12.63;11.83;;;8.80;99.90;;;;;;4877669;29;20771;-71
2023/04/15 06:34:25;;;;;;;12.90;12.00;;;8.50;99.90;;;;;;4877154;29;20452;-70
2023/04/15 06:36:53;;;;;;;13.77;12.80;;;8.20;99.90;;;;;;4877443;29;20979;-70
2023/04/15 06:39:20;;;;;;;13.27;12.27;;;8.30;99.90;;;;;;4877713;29;20495;-71
2023/04/15 06:41:46;;;;;;;13.00;11.70;;;8.70;99.90;;;;;;4877590;29;20455;-70
2023/04/15 06:44:15;;;;;;;13.20;12.30;;;9.30;99.90;;;;;;4877274;29;20464;-71
2023/04/15 06:46:41;;;;;;;13.57;12.67;;;9.90;99.90;;;;;;4877153;29;20664;-70
2023/04/15 06:49:08;;;;;;;12.80;12.03;;;10.20;99.90;;;;;;4876975;29;20860;-71
2023/04/15 06:51:35;;;;;;;12.80;11.50;;;10.40;99.90;;;;;;4877017;29;21127;-71
2023/04/15 06:54:04;;;;;;;11.70;10.90;;;10.50;99.90;;;;;;4876914;29;20854;-71
2023/04/15 06:56:31;;;;;;;13.90;12.70;;;10.90;99.90;;;;;;4879590;29;20652;-72
2023/04/15 06:58:58;;;;;;;15.13;14.00;;;11.00;99.90;;;;;;4887078;29;20498;-71
2023/04/15 07:01:26;;;;;;;13.73;12.70;;;11.10;99.90;;;;;;4884274;29;20849;-71
2023/04/15 07:03:53;;;;;;;12.90;12.20;;;10.80;99.90;;;;;;4876758;29;20470;-71
2023/04/15 07:06:20;;;;;;;13.50;12.50;;;10.80;99.90;;;;;;4892906;29;20451;-71
2023/04/15 07:08:47;;;;;;;13.00;12.10;;;10.40;99.90;;;;;;4895532;29;20455;-71
2023/04/15 07:11:14;;;;;;;18.90;13.30;;;10.10;99.90;;;;;;4895172;29;20463;-70
2023/04/15 07:13:40;;;;;;;11.40;10.60;;;9.70;99.90;;;;;;4888150;29;20607;-70
2023/04/15 07:16:07;;;;;;;12.93;11.67;;;9.50;99.90;;;;;;4876232;29;20460;-70
2023/04/15 07:18:35;;;;;;;11.70;10.90;;;9.20;99.90;;;;;;4876573;29;20525;-71
2023/04/15 07:21:02;;;;;;;11.80;11.10;;;9.10;99.90;;;;;;4876124;29;20504;-70
2023/04/15 07:23:29;;;;;;;10.43;9.83;;;8.80;99.90;;;;;;4876592;29;20547;-70
2023/04/15 07:25:56;;;;;;;12.80;11.73;;;8.60;99.90;;;;;;4876123;29;20895;-70
2023/04/15 07:28:22;;;;;;;15.97;13.83;;;8.60;99.90;;;;;;4876270;29;20543;-70
2023/04/15 07:30:49;;;;;;;19.27;14.70;;;8.50;99.90;;;;;;4884179;29;20456;-70
2023/04/15 07:33:16;;;;;;;14.10;13.00;;;8.60;99.90;;;;;;4894880;29;20451;-71
2023/04/15 07:35:45;;;;;;;11.60;10.70;;;9.00;99.90;;;;;;4893010;29;20466;-72
2023/04/15 07:38:12;;;;;;;12.53;11.73;;;9.20;99.90;;;;;;4894579;29;20495;-70
2023/04/15 07:40:39;;;;;;;11.20;10.30;;;9.40;99.90;;;;;;4894448;29;20491;-71
2023/04/15 07:43:05;;;;;;;13.57;12.67;;;9.80;99.90;;;;;;4894911;29;20463;-71
2023/04/15 07:45:32;;;;;;;13.40;12.23;;;10.00;99.90;;;;;;4894927;29;20466;-71
2023/04/15 07:48:00;;;;;;;12.40;11.70;;;10.10;99.90;;;;;;4894717;29;20460;-71
2023/04/15 07:50:27;;;;;;;10.73;9.90;;;10.40;99.90;;;;;;4894654;29;20473;-72
2023/04/15 07:52:56;;;;;;;12.37;11.67;;;10.90;99.90;;;;;;4894189;29;20892;-71
2023/04/15 07:55:23;;;;;;;11.67;11.07;;;11.40;99.90;;;;;;4894545;29;20536;-71
2023/04/15 07:57:49;;;;;;;12.60;11.60;;;12.00;99.40;;;;;;4894651;29;20922;-72
2023/04/15 08:00:17;;;;;;;13.20;12.40;;;12.70;97.60;;;;;;4894589;29;20478;-71
2023/04/15 08:02:45;;;;;;;12.97;12.27;;;13.10;96.20;;;;;;4894264;29;20463;-71
2023/04/15 08:05:12;;;;;;;14.60;12.20;;;13.20;96.10;;;;;;4894452;29;20852;-72
2023/04/15 08:07:39;;;;;;;12.00;11.20;;;13.30;95.30;;;;;;4894144;29;20455;-71
2023/04/15 08:10:08;;;;;;;12.33;11.57;;;13.90;94.80;;;;;;4895026;29;20459;-71
2023/04/15 08:12:35;;;;;;;12.83;12.03;;;14.40;93.40;;;;;;4895360;29;20459;-72
2023/04/15 08:15:01;;;;;;;13.40;12.40;;;14.60;92.60;;;;;;4895405;29;20463;-71
2023/04/15 08:17:28;;;;;;;12.53;11.73;;;14.70;92.00;;;;;;4895066;29;20538;-71
2023/04/15 08:19:55;;;;;;;12.87;12.23;;;14.50;91.70;;;;;;4894797;29;20499;-72
2023/04/15 08:22:21;;;;;;;13.00;12.30;;;14.70;92.30;;;;;;4894940;29;20949;-72
2023/04/15 08:24:48;;;;;;;13.33;12.63;;;15.00;91.40;;;;;;4895246;29;20467;-72
2023/04/15 08:27:16;;;;;;;12.73;12.13;;;15.50;90.50;;;;;;4894934;29;20510;-73
2023/04/15 08:29:44;;;;;;;13.67;12.57;;;16.00;90.20;;;;;;4894968;29;20459;-72
2023/04/15 08:32:11;;;;;;;14.33;12.87;;;16.20;88.00;;;;;;4894760;29;21354;-72
2023/04/15 08:34:37;;;;;;;14.50;13.43;;;16.50;86.20;;;;;;4894048;29;20870;-72
2023/04/15 08:37:04;;;;;;;15.60;14.30;;;17.80;84.40;;;;;;4895217;29;20515;-71
2023/04/15 08:39:31;;;;;;;14.00;13.30;;;18.50;79.40;;;;;;4894707;29;20494;-73
2023/04/15 08:42:01;;;;;;;13.07;12.10;;;19.60;76.20;;;;;;4894519;29;20463;-72
2023/04/15 08:44:31;;;;;;;14.50;13.60;;;20.80;70.40;;;;;;4894512;29;20483;-72
2023/04/15 08:47:01;;;;;;;14.83;13.93;;;21.60;66.10;;;;;;4894640;29;20511;-72
2023/04/15 08:49:29;;;;;;;13.83;13.13;;;22.10;62.30;;;;;;4894338;29;20550;-73
2023/04/15 08:51:59;;;;;;;14.07;13.17;;;22.00;60.70;;;;;;4894508;29;21037;-74
2023/04/15 08:54:26;;;;;;;12.77;11.97;;;21.70;60.30;;;;;;4894154;29;20754;-73
2023/04/15 08:56:53;;;;;;;12.00;11.40;;;22.10;59.80;;;;;;4894653;29;20459;-74
2023/04/15 08:59:21;;;;;;;16.90;16.00;;;22.60;58.60;;;;;;4894508;29;20495;-74
2023/04/15 09:01:50;;;;;;;14.43;13.43;;;23.10;57.60;;;;;;4894755;29;20550;-74
2023/04/15 09:04:17;;;;;;;14.73;13.83;;;23.00;57.20;;;;;;4894455;29;20447;-74
2023/04/15 09:06:44;;;;;;;14.40;13.30;;;23.20;56.40;;;;;;4894175;29;20463;-73
2023/04/15 09:09:13;;;;;;;13.03;12.13;;;24.10;55.70;;;;;;4894311;29;20455;-75
2023/04/15 09:11:39;;;;;;;13.70;12.80;;;25.10;52.40;;;;;;4894059;29;20956;-74
2023/04/15 09:14:06;;;;;;;14.43;13.67;;;25.00;50.90;;;;;;4894181;29;20511;-75
2023/04/15 09:16:57;;;;;;;14.77;13.97;;;25.00;51.20;;;;;;4894467;29;20463;-75
2023/04/15 09:19:26;;;;;;;13.87;13.07;;;23.90;50.70;;;;;;4893947;29;21092;-75
2023/04/15 09:21:55;;;;;;;14.87;13.97;;;23.80;51.10;;;;;;4893679;29;20465;-74
2023/04/15 09:24:22;;;;;;;13.00;12.30;;;23.60;52.00;;;;;;4894181;29;20499;-75
2023/04/15 09:26:54;;;;;;;14.13;13.20;;;23.10;51.70;;;;;;4894262;29;20478;-76
2023/04/15 09:29:24;;;;;;;13.20;12.30;;;23.10;52.70;;;;;;4894155;29;20459;-76
2023/04/15 09:31:51;;;;;;;13.30;12.50;;;24.00;51.90;;;;;;4894041;29;20463;-76
2023/04/15 09:34:20;;;;;;;14.10;13.40;;;25.50;50.30;;;;;;4894418;29;20519;-75
2023/04/15 09:36:54;;;;;;;14.63;13.60;;;25.70;48.10;;;;;;4894026;29;20470;-75
2023/04/15 09:39:21;;;;;;;13.73;12.60;;;24.30;49.10;;;;;;4893695;29;20494;-74
2023/04/15 09:42:05;;;;;;;13.87;12.97;;;23.70;50.80;;;;;;4894161;29;20503;-74
2023/04/15 09:44:32;;;;;;;13.47;12.37;;;23.10;51.50;;;;;;4895930;29;21217;-74
2023/04/15 09:46:59;;;;;;;13.83;13.10;;;22.90;51.70;;;;;;4900198;29;20459;-74
2023/04/15 09:49:27;;;;;;;14.17;13.30;;;22.40;52.00;;;;;;4899974;29;21151;-75
2023/04/15 09:51:58;;;;;;;14.30;13.47;;;21.60;53.90;;;;;;4899824;29;20558;-74
2023/04/15 09:54:25;;;;;;;13.10;12.40;;;21.40;54.50;;;;;;4899900;29;20859;-74
2023/04/15 09:56:52;;;;;;;13.70;13.00;;;20.90;55.60;;;;;;4899961;29;20883;-73
2023/04/15 09:59:18;;;;;;;11.90;11.20;;;20.80;56.20;;;;;;4900383;29;20861;-74
2023/04/15 10:01:45;;;;;;;13.27;12.67;;;20.10;55.80;;;;;;4899908;29;20462;-74
2023/04/15 10:04:12;;;;;;;13.87;13.17;;;20.20;56.20;;;;;;4899995;29;20459;-75
2023/04/15 10:06:40;;;;;;;14.17;13.27;;;20.30;57.10;;;;;;4899850;29;20462;-75
2023/04/15 10:09:08;;;;;;;12.80;12.10;;;20.30;57.40;;;;;;4899804;29;20519;-74
2023/04/15 10:11:35;;;;;;;12.17;11.47;;;20.30;57.20;;;;;;4900126;29;20466;-74
2023/04/15 10:14:02;;;;;;;12.70;11.70;;;19.70;56.90;;;;;;4900139;29;21112;-72
2023/04/15 10:16:32;;;;;;;12.23;11.40;;;19.40;58.50;;;;;;4899800;29;20455;-73
2023/04/15 10:19:03;;;;;;;13.50;12.70;;;18.80;59.20;;;;;;4899633;29;20848;-74
2023/04/15 10:21:31;;;;;;;13.70;13.00;;;19.10;59.50;;;;;;4899929;29;20455;-75
2023/04/15 10:24:00;;;;;;;13.53;12.87;;;19.40;59.00;;;;;;4899627;29;20459;-75
2023/04/15 10:26:28;;;;;;;13.30;12.70;;;19.30;58.70;;;;;;4899556;29;20454;-75
2023/04/15 10:28:55;;;;;;;12.50;11.90;;;20.00;58.60;;;;;;4899529;29;20466;-75
2023/04/15 10:31:23;;;;;;;13.33;12.63;;;21.00;55.90;;;;;;4899644;29;20522;-76
2023/04/15 10:33:50;;;;;;;13.07;12.37;;;21.90;56.00;;;;;;4899979;29;20458;-75
2023/04/15 10:36:19;;;;;;;15.10;14.27;;;22.80;53.90;;;;;;4899837;29;20874;-76
2023/04/15 10:38:46;;;;;;;12.27;11.47;;;23.50;53.00;;;;;;4899764;29;21106;-76
2023/04/15 10:41:16;;;;;;;12.80;12.20;;;22.90;54.10;;;;;;4899480;29;20455;-75
2023/04/15 10:43:50;;;;;;;11.50;11.00;;;21.90;53.50;;;;;;4899677;29;20489;-74
2023/04/15 10:46:22;;;;;;;13.13;12.53;;;20.00;55.30;;;;;;4899882;29;20458;-74
2023/04/15 10:48:50;;;;;;;12.93;12.23;;;19.50;57.50;;;;;;4899828;29;20522;-75
2023/04/15 10:51:17;;;;;;;11.80;11.30;;;19.30;56.60;;;;;;4899837;29;20525;-74
2023/04/15 10:53:44;;;;;;;11.63;11.03;;;18.60;55.80;;;;;;4899366;29;20483;-74
2023/04/15 10:56:11;;;;;;;13.93;13.10;;;18.90;57.40;;;;;;4897681;29;20462;-75
2023/04/15 10:58:45;;;;;;;12.73;11.97;;;19.80;57.10;;;;;;4896436;29;20542;-75
2023/04/15 11:01:13;;;;;;;13.63;13.00;;;20.70;54.60;;;;;;4896520;29;20502;-76
2023/04/15 11:03:42;;;;;;;11.30;10.70;;;21.60;52.70;;;;;;4896450;29;20804;-75
2023/04/15 11:06:09;;;;;;;12.17;11.17;;;21.50;51.30;;;;;;4896310;29;20522;-75
2023/04/15 11:08:57;;;;;;;12.73;12.03;;;20.50;52.60;;;;;;4896290;29;20463;-74
2023/04/15 11:12:03;;;;;;;12.97;12.37;;;20.30;54.50;;;;;;4896478;29;20495;-75
2023/04/15 11:14:34;;;;;;;11.97;11.37;;;19.80;55.10;;;;;;4896285;29;20459;-75
2023/04/15 11:17:01;;;;;;;13.80;12.70;;;20.40;55.40;;;;;;4896360;29;20560;-75
2023/04/15 11:19:36;;;;;;;14.57;13.80;;;20.50;55.00;;;;;;4896145;29;20558;-76
2023/04/15 11:22:07;;;;;;;12.63;12.03;;;20.60;54.50;;;;;;4896409;29;20510;-75
2023/04/15 11:24:34;;;;;;;14.53;13.83;;;20.80;51.80;;;;;;4896490;29;20456;-74
2023/04/15 11:27:02;;;;;;;13.40;12.30;;;20.80;53.10;;;;;;4896173;29;20502;-76
2023/04/15 11:29:31;;;;;;;13.00;12.40;;;20.30;54.40;;;;;;4896144;29;20463;-75
2023/04/15 11:32:08;;;;;;;13.50;12.77;;;20.70;55.40;;;;;;4895736;29;20538;-75
2023/04/15 11:34:35;;;;;;;13.73;12.80;;;21.90;53.80;;;;;;4895776;29;20526;-74
2023/04/15 11:37:05;;;;;;;14.23;13.43;;;22.10;52.60;;;;;;4895861;29;20471;-74
2023/04/15 11:39:32;;;;;;;14.33;13.50;;;22.00;52.90;;;;;;4895750;29;20582;-74
2023/04/15 11:41:58;;;;;;;13.77;12.90;;;21.60;53.90;;;;;;4895752;29;20455;-74
2023/04/15 11:44:25;;;;;;;14.50;13.80;;;21.00;54.40;;;;;;4895706;29;21017;-73
2023/04/15 11:46:54;;;;;;;12.70;12.00;;;20.10;54.20;;;;;;4895709;29;20463;-73
2023/04/15 11:49:29;;;;;;;13.80;13.17;;;19.20;54.50;;;;;;4895949;29;20447;-74
2023/04/15 11:51:55;;;;;;;12.23;11.33;;;18.60;55.60;;;;;;4895373;29;20474;-73
2023/04/15 11:54:22;;;;;;;13.83;13.03;;;18.00;56.50;;;;;;4895310;29;20989;-73
2023/04/15 11:56:51;;;;;;;15.13;14.23;;;17.60;60.00;;;;;;4895720;29;20491;-74
2023/04/15 11:59:18;;;;;;;16.40;15.40;;;16.90;68.70;;;;;;4895762;29;20530;-74
2023/04/15 12:01:46;;;;;;;20.60;19.60;;;16.30;78.60;;;;;;4895249;29;20455;-73
2023/04/15 12:04:16;;;;;;;23.10;22.00;;;15.40;88.90;;;;;;4895498;29;20550;-76
2023/04/15 12:06:43;;;;;;;21.40;19.93;;;15.00;93.50;;;;;;4883537;29;20570;-75
2023/04/15 12:09:11;;;;;;;17.50;16.30;;;14.70;95.00;;;;;;4884322;29;20812;-73
2023/04/15 12:11:45;;;;;;;14.40;13.30;;;14.90;92.00;;;;;;4884442;29;20564;-71
2023/04/15 12:14:19;;;;;;;14.77;13.80;;;15.70;90.10;;;;;;4883923;29;20452;-72
2023/04/15 12:16:48;;;;;;;14.20;13.30;;;16.50;89.30;;;;;;4883607;29;20498;-73
2023/04/15 12:19:18;;;;;;;13.50;12.60;;;17.00;79.50;;;;;;4884637;29;20581;-73
2023/04/15 12:21:47;;;;;;;12.63;11.73;;;16.60;78.40;;;;;;4885291;29;20586;-73
2023/04/15 12:24:14;;;;;;;12.53;11.73;;;16.80;79.70;;;;;;4886091;29;20551;-73
2023/04/15 12:26:45;;;;;;;12.87;12.00;;;17.00;76.20;;;;;;4883781;29;20720;-74
2023/04/15 12:29:13;;;;;;;16.43;15.53;;;16.40;75.00;;;;;;4883377;29;20990;-76
2023/04/15 12:31:49;;;;;;;31.57;29.47;;;15.70;79.70;;;;;;4883701;29;20459;-73
2023/04/15 12:34:18;;;;;;;34.73;32.63;;;14.60;92.80;;;;;;4884028;29;20459;-76
2023/04/15 12:36:45;;;;;;;35.30;32.90;;;13.80;99.90;;;;;;4883136;29;20971;-76
2023/04/15 12:39:13;;;;;;;35.30;32.70;;;13.20;99.90;;;;;;4883290;29;20453;-76
2023/04/15 12:41:39;;;;;;;35.70;33.27;;;12.20;99.90;;;;;;4883899;29;20982;-77
2023/04/15 12:44:06;;;;;;;38.47;35.77;;;11.50;99.90;;;;;;4884961;29;20455;-78
2023/04/15 12:46:33;;;;;;;37.40;34.90;;;11.30;99.90;;;;;;4883697;29;20464;-76
2023/04/15 12:49:00;;;;;;;38.43;35.73;;;11.00;99.90;;;;;;4883617;29;20515;-77
2023/04/15 12:51:28;;;;;;;38.43;35.83;;;10.70;99.90;;;;;;4884554;29;21005;-77
2023/04/15 12:53:55;;;;;;;36.17;33.73;;;10.50;99.90;;;;;;4883324;29;20480;-77
2023/04/15 12:56:22;;;;;;;39.07;36.50;;;10.50;99.90;;;;;;4883671;29;20455;-76
2023/04/15 12:58:49;;;;;;;37.63;35.03;;;10.40;99.90;;;;;;4884840;29;20806;-76
2023/04/15 13:01:16;;;;;;;35.53;33.23;;;10.40;99.90;;;;;;4883343;29;20491;-75
2023/04/15 13:03:42;;;;;;;34.37;32.50;;;10.40;99.90;;;;;;4883155;29;20480;-76
2023/04/15 13:06:09;;;;;;;34.50;32.70;;;10.50;99.90;;;;;;4884714;29;20447;-73
2023/04/15 13:08:37;;;;;;;32.33;30.33;;;10.70;99.90;;;;;;4883511;29;20456;-74
2023/04/15 13:11:04;;;;;;;33.77;32.10;;;10.90;99.90;;;;;;4883069;29;20447;-74
2023/04/15 13:13:31;;;;;;;28.53;27.03;;;11.10;99.90;;;;;;4882750;29;20452;-74
2023/04/15 13:15:58;;;;;;;24.13;23.03;;;11.30;99.90;;;;;;4883324;29;20534;-75
2023/04/15 13:18:25;;;;;;;23.33;22.23;;;11.30;99.90;;;;;;4884228;29;20516;-75
2023/04/15 13:20:52;;;;;;;22.93;21.63;;;11.70;99.90;;;;;;4882188;29;20488;-74
2023/04/15 13:23:18;;;;;;;18.70;17.90;;;12.10;99.90;;;;;;4883820;29;20459;-75
2023/04/15 13:25:46;;;;;;;21.20;19.93;;;12.50;99.90;;;;;;4884148;29;20452;-73
2023/04/15 13:28:13;;;;;;;20.33;19.53;;;13.00;99.90;;;;;;4884855;29;20452;-74
2023/04/15 13:30:40;;;;;;;17.90;17.10;;;13.50;99.90;;;;;;4883184;29;20813;-74
2023/04/15 13:33:06;;;;;;;17.87;17.13;;;13.70;99.90;;;;;;4884204;29;20469;-72
2023/04/15 13:35:33;;;;;;;17.43;16.70;;;14.20;99.90;;;;;;4882925;29;20460;-72
2023/04/15 13:38:00;;;;;;;16.57;15.77;;;14.60;99.80;;;;;;4883006;29;20570;-73
2023/04/15 13:40:27;;;;;;;14.87;14.27;;;14.80;99.50;;;;;;4883969;29;20491;-73
2023/04/15 13:42:55;;;;;;;14.97;14.17;;;15.00;98.10;;;;;;4882684;29;20461;-73
2023/04/15 13:45:21;;;;;;;14.27;13.67;;;15.10;96.00;;;;;;4882927;29;20451;-71
2023/04/15 13:47:48;;;;;;;14.60;14.00;;;15.10;94.60;;;;;;4884039;29;20452;-72
2023/04/15 13:50:15;;;;;;;16.00;14.90;;;15.00;93.60;;;;;;4882312;29;20504;-72
2023/04/15 13:52:41;;;;;;;13.97;13.37;;;14.80;92.80;;;;;;4882095;29;20523;-72
2023/04/15 13:55:09;;;;;;;11.57;11.07;;;15.00;92.30;;;;;;4883785;29;20454;-72
2023/04/15 13:57:36;;;;;;;12.30;11.70;;;14.90;92.10;;;;;;4882750;29;20489;-71
2023/04/15 14:00:05;;;;;;;11.70;11.20;;;15.10;91.90;;;;;;4882672;29;20840;-72
2023/04/15 14:02:32;;;;;;;12.20;11.70;;;15.40;92.40;;;;;;4884144;29;20447;-72
2023/04/15 14:04:59;;;;;;;11.73;11.23;;;15.30;90.40;;;;;;4882881;29;20804;-72
2023/04/15 14:07:25;;;;;;;11.83;11.43;;;15.10;87.10;;;;;;4882002;29;20478;-74
2023/04/15 14:09:52;;;;;;;11.77;11.27;;;15.00;87.90;;;;;;4875041;29;20456;-72
2023/04/15 14:12:19;;;;;;;11.20;10.60;;;14.90;85.20;;;;;;4875890;29;20491;-73
2023/04/15 14:14:46;;;;;;;10.97;10.57;;;14.90;85.60;;;;;;4884300;29;20484;-72
2023/04/15 14:17:14;;;;;;;10.80;10.40;;;14.90;81.50;;;;;;4874663;29;20897;-73
2023/04/15 14:19:40;;;;;;;11.87;11.37;;;14.70;77.60;;;;;;4883493;29;20451;-73
2023/04/15 14:22:07;;;;;;;11.60;11.00;;;14.50;77.30;;;;;;4893098;29;20809;-73
2023/04/15 14:24:34;;;;;;;11.03;10.43;;;14.50;78.60;;;;;;4893594;29;20459;-72
2023/04/15 14:27:00;;;;;;;11.10;10.60;;;14.40;78.80;;;;;;4893560;29;20447;-73
2023/04/15 14:29:27;;;;;;;9.97;9.67;;;14.50;79.10;;;;;;4874563;29;20456;-72
2023/04/15 14:31:56;;;;;;;11.00;10.47;;;14.40;75.60;;;;;;4876173;29;20808;-72
2023/04/15 14:34:24;;;;;;;11.43;10.93;;;14.20;76.40;;;;;;4877860;29;20472;-72
2023/04/15 14:36:52;;;;;;;10.80;10.40;;;14.40;78.10;;;;;;4877715;29;20568;-72
2023/04/15 14:39:19;;;;;;;10.43;10.00;;;14.40;76.70;;;;;;4878448;29;20468;-72
2023/04/15 14:41:46;;;;;;;11.00;10.60;;;14.30;75.20;;;;;;4877810;29;20523;-72
2023/04/15 14:44:12;;;;;;;11.63;11.13;;;14.20;77.00;;;;;;4878003;29;20456;-72
2023/04/15 14:46:40;;;;;;;9.60;9.20;;;14.10;78.60;;;;;;4894269;29;20455;-72
2023/04/15 14:49:07;;;;;;;10.73;10.33;;;14.10;80.90;;;;;;4895358;29;21026;-72
2023/04/15 14:51:35;;;;;;;10.03;9.60;;;14.00;79.20;;;;;;4895640;29;20494;-72
2023/04/15 14:54:01;;;;;;;11.73;11.33;;;13.80;80.60;;;;;;4895767;29;20498;-72
2023/04/15 14:56:28;;;;;;;11.33;10.87;;;13.90;82.20;;;;;;4895406;29;20455;-72
2023/04/15 14:58:55;;;;;;;9.20;8.90;;;13.70;80.40;;;;;;4895500;29;20467;-72
2023/04/15 15:01:22;;;;;;;8.83;8.53;;;13.50;81.40;;;;;;4895350;29;20490;-72
2023/04/15 15:03:49;;;;;;;11.20;10.80;;;13.30;83.30;;;;;;4895572;29;20507;-73
2023/04/15 15:06:16;;;;;;;10.60;10.20;;;13.20;83.10;;;;;;4895177;29;20452;-73
2023/04/15 15:08:46;;;;;;;10.60;10.20;;;13.20;84.80;;;;;;4894598;29;20515;-72
2023/04/15 15:11:12;;;;;;;11.30;10.90;;;13.00;86.00;;;;;;4894659;29;20448;-73
2023/04/15 15:13:39;;;;;;;10.80;10.40;;;12.80;86.60;;;;;;4894915;29;20466;-72
2023/04/15 15:16:06;;;;;;;12.20;11.70;;;12.80;88.30;;;;;;4895220;29;21028;-74
2023/04/15 15:18:33;;;;;;;11.57;11.07;;;12.80;89.80;;;;;;4894987;29;20463;-73
2023/04/15 15:20:59;;;;;;;10.60;10.20;;;12.60;90.00;;;;;;4892839;29;20516;-73
2023/04/15 15:23:26;;;;;;;11.57;11.07;;;12.50;90.90;;;;;;4891274;29;20484;-71
2023/04/15 15:25:55;;;;;;;11.30;10.90;;;12.50;91.70;;;;;;4895267;29;20538;-71
2023/04/15 15:28:22;;;;;;;11.20;10.63;;;12.50;91.90;;;;;;4895418;29;20463;-73
2023/04/15 15:30:48;;;;;;;10.77;10.27;;;12.60;91.50;;;;;;4895339;29;20527;-73
2023/04/15 15:33:15;;;;;;;10.73;10.33;;;12.50;92.10;;;;;;4895102;29;20471;-73
2023/04/15 15:35:41;;;;;;;11.70;11.20;;;12.30;92.30;;;;;;4894931;29;20619;-73
2023/04/15 15:38:10;;;;;;;11.70;11.30;;;12.20;93.20;;;;;;4895258;29;20459;-73
2023/04/15 15:40:37;;;;;;;11.67;11.10;;;12.10;95.30;;;;;;4893663;29;20509;-73
2023/04/15 15:43:05;;;;;;;10.83;10.43;;;12.00;95.80;;;;;;4894123;29;20662;-73
2023/04/15 15:45:32;;;;;;;11.90;11.30;;;11.90;96.30;;;;;;4886885;29;20479;-73
2023/04/15 15:47:59;;;;;;;10.83;10.33;;;11.80;98.10;;;;;;4880416;29;20956;-73
2023/04/15 15:50:26;;;;;;;12.17;11.50;;;11.80;98.70;;;;;;4894431;29;20542;-72
2023/04/15 15:52:52;;;;;;;10.93;10.40;;;11.80;99.50;;;;;;4884620;29;20484;-73
2023/04/15 15:55:19;;;;;;;12.17;11.60;;;11.80;99.90;;;;;;4875893;29;20563;-73
2023/04/15 15:57:46;;;;;;;10.30;9.63;;;11.90;99.90;;;;;;4875638;29;20547;-73
2023/04/15 16:00:14;;;;;;;11.80;11.10;;;11.80;99.10;;;;;;4875589;29;20460;-73
2023/04/15 16:02:41;;;;;;;10.67;9.90;;;11.80;99.90;;;;;;4894400;29;20459;-73
2023/04/15 16:05:08;;;;;;;14.20;13.60;;;11.70;99.90;;;;;;4894021;29;20470;-73
2023/04/15 16:07:35;;;;;;;17.60;16.80;;;11.50;99.90;;;;;;4893800;29;20491;-73
2023/04/15 16:10:02;;;;;;;17.10;16.40;;;11.30;99.90;;;;;;4893656;29;20463;-73
2023/04/15 16:12:28;;;;;;;17.30;16.50;;;11.20;99.90;;;;;;4893575;29;20471;-71
2023/04/15 16:14:55;;;;;;;18.57;17.77;;;11.00;99.90;;;;;;4894019;29;20527;-75
2023/04/15 16:17:23;;;;;;;18.50;17.70;;;10.90;99.90;;;;;;4892695;29;20458;-73
2023/04/15 16:19:50;;;;;;;19.47;18.57;;;10.80;99.90;;;;;;4875410;29;20462;-73
2023/04/15 16:22:16;;;;;;;22.07;21.27;;;10.70;99.90;;;;;;4875151;29;21091;-73
2023/04/15 16:24:43;;;;;;;22.57;21.67;;;10.50;99.90;;;;;;4875489;29;20945;-74